createdAt,value
2022-12-05T16:02:59.556Z,104077.84
2022-12-05T16:05:35.426Z,104057.16
2022-12-05T16:08:06.108Z,104049.50
2022-12-05T16:10:35.300Z,104050.50
2022-12-05T16:13:05.922Z,104049.84
2022-12-05T16:15:34.584Z,104045.69
2022-12-05T16:18:06.181Z,104045.03
2022-12-05T16:20:35.612Z,104041.78
2022-12-05T16:23:05.961Z,104033.34
2022-12-05T16:25:35.815Z,104028.34
2022-12-05T16:28:16.760Z,104017.28
2022-12-05T16:30:55.843Z,104019.16
2022-12-05T16:33:25.697Z,104018.44
2022-12-05T16:35:54.260Z,104022.03
2022-12-05T16:38:25.885Z,104010.88
2022-12-05T16:40:59.436Z,104015.31
2022-12-05T16:43:42.078Z,104011.94
2022-12-05T16:46:44.743Z,104012.06
2022-12-05T16:49:34.774Z,104011.28
2022-12-05T16:52:05.293Z,104023.47
2022-12-05T16:54:33.282Z,104027.03
2022-12-05T16:57:02.420Z,104031.41
2022-12-05T16:59:34.320Z,104022.81
2022-12-05T17:02:03.732Z,104024.59
2022-12-05T17:04:33.278Z,104017.69
2022-12-05T17:07:01.361Z,104026.41
2022-12-05T17:09:29.309Z,104026.41
2022-12-05T17:12:04.264Z,104033.38
2022-12-05T17:14:32.455Z,104040.31
2022-12-05T17:17:03.416Z,104034.25
2022-12-05T17:19:33.357Z,104042.94
2022-12-05T17:22:02.168Z,104048.22
2022-12-05T17:24:30.171Z,104053.44
2022-12-05T17:26:58.159Z,104050.88
2022-12-05T17:29:27.984Z,104055.22
2022-12-05T17:31:59.202Z,104059.59
2022-12-05T17:34:27.475Z,104054.41
2022-12-05T17:36:56.906Z,104057.91
2022-12-05T17:39:28.250Z,104068.38
2022-12-05T17:41:56.965Z,104068.41
2022-12-05T17:44:25.211Z,104069.31
2022-12-05T17:46:53.233Z,104070.25
2022-12-05T17:49:22.874Z,104080.69
2022-12-05T17:52:20.557Z,104080.72
2022-12-05T17:54:43.225Z,104083.34
2022-12-05T17:57:11.235Z,104085.06
2022-12-05T17:59:39.274Z,104088.56
2022-12-05T18:02:07.887Z,104095.50
2022-12-05T18:04:36.822Z,104097.25
2022-12-05T18:07:04.957Z,104098.13
2022-12-05T18:09:32.960Z,104109.47
2022-12-05T18:12:02.344Z,104108.56
2022-12-05T18:14:30.936Z,104118.16
2022-12-05T18:16:59.243Z,104132.97
2022-12-05T18:19:27.321Z,104129.50
2022-12-05T18:21:55.329Z,104137.34
2022-12-05T18:24:23.397Z,104137.34
2022-12-05T18:26:51.422Z,104154.75
2022-12-05T18:29:20.810Z,104160.84
2022-12-05T18:31:48.803Z,104174.75
2022-12-05T18:34:16.853Z,104170.41
2022-12-05T18:36:44.887Z,104185.25
2022-12-05T18:39:15.048Z,104191.31
2022-12-05T18:41:43.351Z,104193.09
2022-12-05T18:44:11.521Z,104187.88
2022-12-05T18:46:41.099Z,104191.38
2022-12-05T18:49:09.257Z,104192.22
2022-12-05T18:51:37.258Z,104196.63
2022-12-05T18:54:05.461Z,104199.22
2022-12-05T18:56:35.194Z,104193.13
2022-12-05T18:59:05.088Z,104193.13
2022-12-05T19:01:35.222Z,104190.56
2022-12-05T19:04:06.501Z,104202.72
2022-12-05T19:06:36.928Z,104196.63
2022-12-05T19:09:06.996Z,104214.88
2022-12-05T19:11:35.524Z,104224.47
2022-12-05T19:14:05.563Z,104230.56
2022-12-05T19:16:35.588Z,104235.78
2022-12-05T19:19:07.135Z,104245.34
2022-12-05T19:21:36.596Z,104244.47
2022-12-05T19:24:06.916Z,104248.81
2022-12-05T19:26:36.140Z,104254.06
2022-12-05T19:29:04.865Z,104258.41
2022-12-05T19:31:33.278Z,104262.78
2022-12-05T19:34:03.597Z,104264.50
2022-12-05T19:36:35.595Z,104260.13
2022-12-05T19:39:09.141Z,104265.34
2022-12-05T19:41:37.832Z,104261.88
2022-12-05T19:44:06.724Z,104263.63
2022-12-05T19:46:35.273Z,104275.78
2022-12-05T19:49:06.591Z,104276.66
2022-12-05T19:51:36.591Z,104272.34
2022-12-05T19:54:07.185Z,104264.50
2022-12-05T19:56:36.571Z,104268.00
2022-12-05T19:59:05.982Z,104268.84
2022-12-05T20:01:35.574Z,104272.38
2022-12-05T20:04:05.577Z,104268.00
2022-12-05T20:06:36.839Z,104265.41
2022-12-05T20:09:06.348Z,104268.00
2022-12-05T20:11:34.797Z,104265.41
2022-12-05T20:14:03.480Z,104265.41
2022-12-05T20:16:33.864Z,104262.81
2022-12-05T20:19:02.262Z,104253.25
2022-12-05T20:21:32.209Z,104252.41
2022-12-05T20:24:03.341Z,104248.03
2022-12-05T20:26:33.835Z,104244.56
2022-12-05T20:29:03.524Z,104241.94
2022-12-05T20:31:34.018Z,104241.09
2022-12-05T20:34:02.689Z,104229.78
2022-12-05T20:36:32.224Z,104221.97
2022-12-05T20:39:03.630Z,104217.63
2022-12-05T20:41:32.234Z,104218.50
2022-12-05T20:44:01.611Z,104206.31
2022-12-05T20:46:31.764Z,104203.69
2022-12-05T20:49:00.457Z,104194.13
2022-12-05T20:51:30.614Z,104191.53
2022-12-05T20:54:00.345Z,104187.16
2022-12-05T20:56:31.750Z,104171.47
2022-12-05T20:59:02.283Z,104172.34
2022-12-05T21:01:32.391Z,104167.09
2022-12-05T21:04:01.622Z,104167.09
2022-12-05T21:06:31.515Z,104151.44
2022-12-05T21:09:01.635Z,104148.84
2022-12-05T21:11:32.220Z,104145.34
2022-12-05T21:14:04.927Z,104144.47
2022-12-05T21:16:33.125Z,104145.34
2022-12-05T21:19:01.407Z,104141.88
2022-12-05T21:21:31.303Z,104148.00
2022-12-05T21:24:01.231Z,104140.16
2022-12-05T21:26:32.305Z,104129.72
2022-12-05T21:29:00.965Z,104126.22
2022-12-05T21:31:30.956Z,104134.09
2022-12-05T21:34:00.477Z,104125.38
2022-12-05T21:36:30.633Z,104123.63
2022-12-05T21:38:58.786Z,104114.06
2022-12-05T21:41:27.038Z,104118.41
2022-12-05T21:43:56.490Z,104109.72
2022-12-05T21:46:24.653Z,104107.09
2022-12-05T21:48:52.902Z,104111.44
2022-12-05T21:51:21.284Z,104104.47
2022-12-05T21:53:49.975Z,104098.41
2022-12-05T21:56:19.782Z,104098.44
2022-12-05T21:58:48.573Z,104093.19
2022-12-05T22:01:21.433Z,104089.72
2022-12-05T22:03:52.839Z,104089.72
2022-12-05T22:06:21.026Z,104086.22
2022-12-05T22:08:49.074Z,104084.47
